createdAt,value
2022-12-11T04:54:38.615Z,13.20
2022-12-11T04:57:06.654Z,13.57
2022-12-11T04:59:33.954Z,12.85
2022-12-11T05:02:01.335Z,14.65
2022-12-11T05:04:33.870Z,13.25
2022-12-11T05:07:02.091Z,14.68
2022-12-11T05:09:29.723Z,13.85
2022-12-11T05:11:58.834Z,15.13
2022-12-11T05:14:27.479Z,14.45
2022-12-11T05:16:54.744Z,14.57
2022-12-11T05:19:22.179Z,15.35
2022-12-11T05:21:49.554Z,15.32
2022-12-11T05:24:17.313Z,16.27
2022-12-11T05:26:44.679Z,16.23
2022-12-11T05:29:12.206Z,16.90
2022-12-11T05:31:39.556Z,17.50
2022-12-11T05:34:06.806Z,17.50
2022-12-11T05:36:34.807Z,18.40
2022-12-11T05:39:03.519Z,18.40
2022-12-11T05:41:32.755Z,17.52
2022-12-11T05:44:00.655Z,18.05
2022-12-11T05:46:30.518Z,18.75
2022-12-11T05:49:00.462Z,17.77
2022-12-11T05:51:29.254Z,18.33
2022-12-11T05:53:58.021Z,19.38
2022-12-11T05:56:31.130Z,18.58
2022-12-11T05:58:59.590Z,19.33
2022-12-11T06:01:37.271Z,19.05
2022-12-11T06:04:07.105Z,19.75
2022-12-11T06:06:34.916Z,19.10
2022-12-11T06:09:04.693Z,21.08
2022-12-11T06:11:34.083Z,18.48
2022-12-11T06:14:03.112Z,19.48
2022-12-11T06:16:30.672Z,20.98
2022-12-11T06:18:58.870Z,19.13
2022-12-11T06:21:29.591Z,20.10
2022-12-11T06:23:59.603Z,19.70
2022-12-11T06:26:28.775Z,19.55
2022-12-11T06:28:56.652Z,19.83
2022-12-11T06:31:24.356Z,19.75
2022-12-11T06:33:51.960Z,18.58
2022-12-11T06:36:22.910Z,18.95
2022-12-11T06:38:51.042Z,20.07
2022-12-11T06:41:18.687Z,19.42
2022-12-11T06:43:46.134Z,19.23
2022-12-11T06:46:17.540Z,18.70
2022-12-11T06:48:45.705Z,19.35
2022-12-11T06:51:16.026Z,18.73
2022-12-11T06:53:44.049Z,18.48
2022-12-11T06:56:14.464Z,18.10
2022-12-11T06:58:43.185Z,17.13
2022-12-11T07:01:22.828Z,18.00
2022-12-11T07:03:55.475Z,18.10
2022-12-11T07:06:23.131Z,22.27
2022-12-11T07:08:51.213Z,19.45
2022-12-11T07:11:20.520Z,16.50
2022-12-11T07:13:48.919Z,14.85
2022-12-11T07:16:17.888Z,15.95
2022-12-11T07:18:50.353Z,14.35
2022-12-11T07:21:20.089Z,12.23
2022-12-11T07:23:48.769Z,16.00
2022-12-11T07:26:19.949Z,16.45
2022-12-11T07:28:47.704Z,14.15
2022-12-11T07:31:23.981Z,12.98
2022-12-11T07:34:04.151Z,13.30
2022-12-11T07:36:31.795Z,12.07
2022-12-11T07:39:00.121Z,11.98
2022-12-11T07:41:28.792Z,13.23
2022-12-11T07:43:56.386Z,13.68
2022-12-11T07:46:26.696Z,12.60
2022-12-11T07:48:54.454Z,12.50
2022-12-11T07:51:28.062Z,12.40
2022-12-11T07:54:00.222Z,13.63
2022-12-11T07:56:29.214Z,13.00
2022-12-11T07:58:58.707Z,11.77
2022-12-11T08:01:28.773Z,13.30
2022-12-11T08:03:57.329Z,13.27
2022-12-11T08:06:28.160Z,15.32
2022-12-11T08:08:56.640Z,13.40
2022-12-11T08:11:24.039Z,12.07
2022-12-11T08:13:51.478Z,12.20
2022-12-11T08:16:20.549Z,14.60
2022-12-11T08:18:48.440Z,17.15
2022-12-11T08:21:21.068Z,14.05
2022-12-11T08:23:49.247Z,13.15
2022-12-11T08:26:23.403Z,12.95
2022-12-11T08:28:52.213Z,18.80
2022-12-11T08:31:20.420Z,14.75
2022-12-11T08:33:48.757Z,21.67
2022-12-11T08:36:19.537Z,17.02
2022-12-11T08:38:47.188Z,13.93
2022-12-11T08:41:17.747Z,15.48
2022-12-11T08:43:45.055Z,15.60
2022-12-11T08:46:13.615Z,13.93
2022-12-11T08:48:42.620Z,19.02
2022-12-11T08:51:16.139Z,13.77
2022-12-11T08:53:44.597Z,15.80
2022-12-11T08:56:16.756Z,16.88
2022-12-11T08:58:45.044Z,16.38
2022-12-11T09:01:15.468Z,14.50
2022-12-11T09:03:43.296Z,17.60
2022-12-11T09:06:13.946Z,21.98
2022-12-11T09:08:47.216Z,15.98
2022-12-11T09:11:23.919Z,16.63
2022-12-11T09:13:51.425Z,27.00
2022-12-11T09:16:21.006Z,21.40
2022-12-11T09:18:50.794Z,18.65
2022-12-11T09:21:21.424Z,17.20
2022-12-11T09:23:52.352Z,15.13
2022-12-11T09:26:20.081Z,14.75
2022-12-11T09:28:47.498Z,18.30
2022-12-11T09:31:20.839Z,13.82
2022-12-11T09:33:48.136Z,13.48
2022-12-11T09:36:15.763Z,16.58
2022-12-11T09:38:45.951Z,15.82
2022-12-11T09:41:22.772Z,19.50
2022-12-11T09:44:13.867Z,15.63
2022-12-11T09:46:42.975Z,13.80
2022-12-11T09:49:40.848Z,13.63
2022-12-11T09:52:17.755Z,16.45
2022-12-11T09:54:59.300Z,16.30
2022-12-11T09:57:46.090Z,15.95
2022-12-11T10:00:19.926Z,15.27
2022-12-11T10:02:47.819Z,12.30
2022-12-11T10:05:29.142Z,12.98
2022-12-11T10:08:28.025Z,16.10
2022-12-11T10:11:22.907Z,12.88
2022-12-11T10:14:17.027Z,12.90
2022-12-11T10:16:48.777Z,12.90
2022-12-11T10:19:27.721Z,31.75
2022-12-11T10:21:56.260Z,33.72
2022-12-11T10:27:35.514Z,18.00
2022-12-11T10:30:24.107Z,22.20
2022-12-11T10:33:02.756Z,29.73
2022-12-11T10:35:33.561Z,16.75
2022-12-11T10:38:13.392Z,20.42
2022-12-11T10:40:47.628Z,11.90
2022-12-11T10:43:15.711Z,12.70
2022-12-11T10:45:54.627Z,11.85
2022-12-11T10:48:23.090Z,11.90
2022-12-11T10:51:01.294Z,12.95
2022-12-11T10:53:29.340Z,14.75
2022-12-11T10:55:58.571Z,18.23
2022-12-11T10:58:31.823Z,20.30
2022-12-11T11:01:16.453Z,17.63
2022-12-11T11:03:53.699Z,11.23
2022-12-11T11:06:23.615Z,12.05
2022-12-11T11:08:57.778Z,10.52
2022-12-11T11:11:38.048Z,12.50
2022-12-11T11:14:20.762Z,10.77
2022-12-11T11:16:50.789Z,10.27
2022-12-11T11:19:23.170Z,9.32
2022-12-11T11:21:58.432Z,9.45
2022-12-11T11:24:32.163Z,10.23
2022-12-11T11:27:15.483Z,11.85
2022-12-11T11:29:45.785Z,10.50
2022-12-11T11:32:31.459Z,8.93
2022-12-11T11:35:14.212Z,7.57
2022-12-11T11:37:46.186Z,8.65
2022-12-11T11:40:13.883Z,10.25
2022-12-11T11:42:52.123Z,5.65
2022-12-11T11:45:28.751Z,5.40
2022-12-11T11:48:11.603Z,8.73
2022-12-11T11:50:45.653Z,5.32
2022-12-11T11:53:31.187Z,4.70
2022-12-11T11:56:28.011Z,4.10
2022-12-11T11:59:21.257Z,10.48
2022-12-11T12:01:48.601Z,22.80
2022-12-11T12:04:16.579Z,5.78
2022-12-11T12:07:31.859Z,4.32
2022-12-11T12:10:17.998Z,20.08
2022-12-11T12:13:36.969Z,9.27
2022-12-11T12:16:01.888Z,8.02
2022-12-11T12:18:58.310Z,7.35
2022-12-11T12:21:37.234Z,4.22
2022-12-11T12:24:27.109Z,8.15
2022-12-11T12:27:00.280Z,5.65
2022-12-11T12:29:58.645Z,5.55
2022-12-11T12:32:38.848Z,3.55
2022-12-11T12:35:14.422Z,2.13
2022-12-11T12:37:48.207Z,6.55
2022-12-11T12:40:51.653Z,3.30
2022-12-11T12:43:38.109Z,5.85
2022-12-11T12:46:20.434Z,4.18
2022-12-11T12:48:49.380Z,6.63
2022-12-11T12:51:18.539Z,3.10
2022-12-11T12:54:16.803Z,2.70
2022-12-11T12:56:46.967Z,3.72
2022-12-11T12:59:23.859Z,9.70
2022-12-11T13:01:56.984Z,4.88
2022-12-11T13:07:30.176Z,4.03
2022-12-11T13:10:07.936Z,2.10
2022-12-11T13:12:46.532Z,2.40
2022-12-11T13:15:52.049Z,2.67
2022-12-11T13:18:39.180Z,3.92
2022-12-11T13:21:31.118Z,2.35
2022-12-11T13:24:21.518Z,5.10
2022-12-11T13:26:51.078Z,8.23
2022-12-11T13:29:28.847Z,5.57
2022-12-11T13:32:02.906Z,7.82
2022-12-11T13:34:35.855Z,8.65
2022-12-11T13:37:04.780Z,10.48
2022-12-11T13:39:35.832Z,7.93
2022-12-11T13:42:20.676Z,7.50
2022-12-11T13:44:49.419Z,7.88
2022-12-11T13:47:19.315Z,10.85
2022-12-11T13:49:52.607Z,5.72
2022-12-11T13:52:23.462Z,5.97
2022-12-11T13:54:54.397Z,8.82
2022-12-11T13:57:25.875Z,8.53
2022-12-11T13:59:55.484Z,4.60
2022-12-11T14:02:36.483Z,4.70
2022-12-11T14:05:07.283Z,2.40
2022-12-11T14:07:49.823Z,4.20
2022-12-11T14:10:28.709Z,3.97
2022-12-11T14:12:59.014Z,4.72
2022-12-11T14:15:28.140Z,10.80
2022-12-11T14:17:59.977Z,3.83
2022-12-11T14:20:33.206Z,4.82
2022-12-11T14:23:21.624Z,6.97
2022-12-11T14:25:58.659Z,17.10
2022-12-11T14:28:28.022Z,16.85
2022-12-11T14:30:59.161Z,6.72
2022-12-11T14:33:32.397Z,10.43
2022-12-11T14:36:02.199Z,7.70
2022-12-11T14:38:33.805Z,6.07
2022-12-11T14:41:08.915Z,15.90
2022-12-11T14:43:45.707Z,13.63
2022-12-11T14:46:21.720Z,13.20
2022-12-11T14:49:01.254Z,10.10
2022-12-11T14:51:39.807Z,6.47
2022-12-11T14:54:20.431Z,7.40
2022-12-11T14:56:47.958Z,11.32
2022-12-11T14:59:26.912Z,8.27
2022-12-11T15:02:19.862Z,8.02
2022-12-11T15:05:01.355Z,15.00
2022-12-11T15:07:29.064Z,11.43
2022-12-11T15:09:56.841Z,12.65
2022-12-11T15:12:25.339Z,8.90
2022-12-11T15:15:00.730Z,8.82
2022-12-11T15:17:31.147Z,7.10
2022-12-11T15:20:08.567Z,9.27
2022-12-11T15:22:37.076Z,5.60
2022-12-11T15:25:05.979Z,5.72
2022-12-11T15:27:36.918Z,7.18
2022-12-11T15:30:29.011Z,10.45
2022-12-11T15:33:12.820Z,9.45
2022-12-11T15:36:02.346Z,6.45
2022-12-11T15:38:40.642Z,10.40
2022-12-11T15:41:17.065Z,5.88
2022-12-11T15:43:44.976Z,6.50
2022-12-11T15:46:12.258Z,7.55
2022-12-11T15:48:39.946Z,8.23
2022-12-11T15:51:07.644Z,5.55
2022-12-11T15:53:35.056Z,6.53
2022-12-11T15:56:02.597Z,8.00
2022-12-11T15:58:30.788Z,9.38
2022-12-11T16:00:58.275Z,9.98
2022-12-11T16:03:26.003Z,11.13
2022-12-11T16:05:53.547Z,9.77
2022-12-11T16:08:23.209Z,9.75
2022-12-11T16:10:54.080Z,8.75
2022-12-11T16:13:22.834Z,10.85
2022-12-11T16:15:51.867Z,13.65
2022-12-11T16:18:22.352Z,13.48
2022-12-11T16:20:51.226Z,9.02
2022-12-11T16:23:19.319Z,8.65
2022-12-11T16:25:47.402Z,8.10
2022-12-11T16:28:18.028Z,6.78
2022-12-11T16:30:46.036Z,6.43
2022-12-11T16:33:13.845Z,4.68
2022-12-11T16:35:42.796Z,9.45
2022-12-11T16:38:11.528Z,10.63
2022-12-11T16:40:39.608Z,6.03
2022-12-11T16:43:06.945Z,21.83
2022-12-11T16:45:34.419Z,21.92
2022-12-11T16:48:05.314Z,27.80
2022-12-11T16:50:32.646Z,19.30
2022-12-11T16:53:00.114Z,20.60
2022-12-11T16:55:27.600Z,22.77
2022-12-11T16:57:55.427Z,44.85
2022-12-11T17:00:23.211Z,46.88
2022-12-11T17:02:50.535Z,34.28
2022-12-11T17:05:18.122Z,27.58
2022-12-11T17:07:45.500Z,19.70
2022-12-11T17:10:13.679Z,12.88
2022-12-11T17:12:40.914Z,9.60
2022-12-11T17:15:10.141Z,27.45
2022-12-11T17:17:37.578Z,14.98
2022-12-11T17:20:05.309Z,4.65
2022-12-11T17:22:33.137Z,4.68
2022-12-11T17:25:00.547Z,5.32
2022-12-11T17:27:27.912Z,5.40
2022-12-11T17:29:55.231Z,4.97
2022-12-11T17:32:22.864Z,5.72
2022-12-11T17:34:50.764Z,4.30
2022-12-11T17:37:18.690Z,4.40
2022-12-11T17:39:47.255Z,4.95
2022-12-11T17:42:15.118Z,5.82
2022-12-11T17:44:45.332Z,4.78
2022-12-11T17:47:12.619Z,6.63
2022-12-11T17:49:40.506Z,13.90
2022-12-11T17:52:08.228Z,13.10
2022-12-11T17:54:35.754Z,12.02
2022-12-11T17:57:04.062Z,12.68
2022-12-11T17:59:31.956Z,13.05
2022-12-11T18:01:59.389Z,16.55
2022-12-11T18:04:27.161Z,12.65
2022-12-11T18:06:54.406Z,14.07
2022-12-11T18:09:22.396Z,11.10
2022-12-11T18:11:51.862Z,11.35
2022-12-11T18:14:19.220Z,13.77
2022-12-11T18:16:46.558Z,9.25
2022-12-11T18:19:15.621Z,8.77
2022-12-11T18:21:44.208Z,9.00
2022-12-11T18:24:12.271Z,9.73
2022-12-11T18:26:40.561Z,10.43
2022-12-11T18:29:08.295Z,8.80
2022-12-11T18:31:41.985Z,7.63
2022-12-11T18:34:11.476Z,9.20
2022-12-11T18:36:40.679Z,10.32
2022-12-11T18:39:08.000Z,11.23
2022-12-11T18:41:35.479Z,11.02
2022-12-11T18:44:09.297Z,16.15
2022-12-11T18:46:39.560Z,12.77
2022-12-11T18:49:07.252Z,9.90
2022-12-11T18:51:35.966Z,10.15
2022-12-11T18:54:03.644Z,8.70
2022-12-11T18:56:30.975Z,11.13
2022-12-11T18:58:59.210Z,11.27
2022-12-11T19:01:28.996Z,12.18
2022-12-11T19:04:03.613Z,14.75
2022-12-11T19:06:35.689Z,13.52
2022-12-11T19:09:05.119Z,14.90
2022-12-11T19:11:34.797Z,10.18
2022-12-11T19:14:03.692Z,11.70
2022-12-11T19:16:35.633Z,11.73
2022-12-11T19:21:35.255Z,9.00
2022-12-11T19:24:02.567Z,12.10
2022-12-11T19:26:29.951Z,13.20
2022-12-11T19:29:00.335Z,15.35
2022-12-11T19:31:30.592Z,12.88
2022-12-11T19:33:59.774Z,13.23
2022-12-11T19:36:28.895Z,12.50
2022-12-11T19:39:01.555Z,11.48
2022-12-11T19:41:31.134Z,12.75
2022-12-11T19:43:59.610Z,11.50
2022-12-11T19:46:39.577Z,11.65
2022-12-11T19:49:07.425Z,10.52
2022-12-11T19:51:38.606Z,9.65
2022-12-11T19:54:09.248Z,7.57
2022-12-11T19:56:38.775Z,7.97
2022-12-11T19:59:11.488Z,12.80
2022-12-11T20:01:40.637Z,17.20
2022-12-11T20:04:10.629Z,20.83
2022-12-11T20:06:40.902Z,22.27
2022-12-11T20:09:11.789Z,19.27
2022-12-11T20:11:40.977Z,10.35
2022-12-11T20:14:09.173Z,7.75
2022-12-11T20:17:09.186Z,6.13
2022-12-11T20:19:24.818Z,6.47
2022-12-11T20:21:52.535Z,6.78
2022-12-11T20:24:20.206Z,7.38
2022-12-11T20:26:49.107Z,12.98
2022-12-11T20:29:16.703Z,10.27
2022-12-11T20:31:45.703Z,13.20
2022-12-11T20:34:13.244Z,11.68
2022-12-11T20:36:41.644Z,16.60
2022-12-11T20:39:10.092Z,14.40
2022-12-11T20:41:37.602Z,16.77
2022-12-11T20:44:04.975Z,11.35
2022-12-11T20:46:32.580Z,9.77
2022-12-11T20:49:00.606Z,11.82
2022-12-11T20:51:29.049Z,9.50
2022-12-11T20:53:59.058Z,9.23
2022-12-11T20:56:30.050Z,10.07
2022-12-11T20:59:00.122Z,9.25
2022-12-11T21:01:30.495Z,9.45
2022-12-11T21:03:59.849Z,8.45
2022-12-11T21:06:33.130Z,10.98
2022-12-11T21:09:03.562Z,10.77
2022-12-11T21:11:30.965Z,9.82
2022-12-11T21:13:59.404Z,9.48
2022-12-11T21:16:27.379Z,9.57
2022-12-11T21:18:56.124Z,10.40
2022-12-11T21:21:23.902Z,15.13
2022-12-11T21:23:52.253Z,13.60
2022-12-11T21:26:20.388Z,15.38
2022-12-11T21:28:48.108Z,13.30
2022-12-11T21:31:18.521Z,13.18
2022-12-11T21:33:46.526Z,14.65
2022-12-11T21:36:15.391Z,14.27
2022-12-11T21:38:44.920Z,14.40
2022-12-11T21:41:18.381Z,17.35
2022-12-11T21:44:41.003Z,16.75
2022-12-11T21:46:35.900Z,19.98
2022-12-11T21:49:03.375Z,33.30
2022-12-11T21:51:37.126Z,23.83
2022-12-11T21:54:13.293Z,23.90
2022-12-11T21:56:42.157Z,25.92
2022-12-11T21:59:09.814Z,26.55
2022-12-11T22:01:41.947Z,26.83
2022-12-11T22:04:11.374Z,28.70
2022-12-11T22:06:42.052Z,30.17
2022-12-11T22:09:12.605Z,32.13
2022-12-11T22:11:41.674Z,30.92
2022-12-11T22:14:13.719Z,38.90
2022-12-11T22:16:42.076Z,30.45
2022-12-11T22:19:10.962Z,26.67
2022-12-11T22:21:38.435Z,24.40
2022-12-11T22:24:06.134Z,28.60
2022-12-11T22:26:33.480Z,27.20
2022-12-11T22:29:01.295Z,29.77
2022-12-11T22:31:29.247Z,34.58
2022-12-11T22:33:57.285Z,34.47
2022-12-11T22:36:27.097Z,28.88
2022-12-11T22:38:55.656Z,33.45
2022-12-11T22:41:27.875Z,22.50
2022-12-11T22:43:56.922Z,22.23
2022-12-11T22:46:30.217Z,24.05
2022-12-11T22:48:58.294Z,26.35
2022-12-11T22:51:25.879Z,27.10
2022-12-11T22:53:53.367Z,24.35
2022-12-11T22:56:21.231Z,24.45
2022-12-11T22:58:48.969Z,21.73
2022-12-11T23:01:26.817Z,25.15
2022-12-11T23:03:54.238Z,26.42
2022-12-11T23:06:23.672Z,27.08
2022-12-11T23:08:52.877Z,29.60
2022-12-11T23:11:34.829Z,29.92
2022-12-11T23:14:03.477Z,28.80
2022-12-11T23:16:31.002Z,32.70
2022-12-11T23:18:58.817Z,35.80
2022-12-11T23:21:27.942Z,38.92
